sensor_id;sensor_type;location;lat;lon;timestamp;P1;durP1;ratioP1;P2;durP2;ratioP2
4148;SDS011;2088;51.032;7.082;2022-10-15T00:01:59;4.83;;;2.90;;
4148;SDS011;2088;51.032;7.082;2022-10-15T00:04:25;2.50;;;2.20;;
4148;SDS011;2088;51.032;7.082;2022-10-15T00:06:52;2.80;;;2.23;;
4148;SDS011;2088;51.032;7.082;2022-10-15T00:09:18;8.93;;;2.33;;
4148;SDS011;2088;51.032;7.082;2022-10-15T00:11:46;2.20;;;1.40;;
4148;SDS011;2088;51.032;7.082;2022-10-15T00:14:12;1.67;;;1.50;;
4148;SDS011;2088;51.032;7.082;2022-10-15T00:16:39;3.50;;;2.10;;
4148;SDS011;2088;51.032;7.082;2022-10-15T00:19:05;3.00;;;2.17;;
4148;SDS011;2088;51.032;7.082;2022-10-15T00:21:32;5.50;;;2.60;;
4148;SDS011;2088;51.032;7.082;2022-10-15T00:23:58;7.93;;;2.13;;
4148;SDS011;2088;51.032;7.082;2022-10-15T00:26:25;3.97;;;2.17;;
4148;SDS011;2088;51.032;7.082;2022-10-15T00:28:55;2.67;;;2.43;;
4148;SDS011;2088;51.032;7.082;2022-10-15T00:31:24;2.80;;;2.30;;
4148;SDS011;2088;51.032;7.082;2022-10-15T00:33:53;4.03;;;2.83;;
4148;SDS011;2088;51.032;7.082;2022-10-15T00:36:21;3.47;;;2.47;;
4148;SDS011;2088;51.032;7.082;2022-10-15T00:38:48;3.70;;;2.90;;
4148;SDS011;2088;51.032;7.082;2022-10-15T00:41:17;5.30;;;3.40;;
4148;SDS011;2088;51.032;7.082;2022-10-15T00:43:46;3.57;;;2.87;;
4148;SDS011;2088;51.032;7.082;2022-10-15T00:46:21;5.80;;;3.30;;
4148;SDS011;2088;51.032;7.082;2022-10-15T00:48:50;8.50;;;3.40;;
4148;SDS011;2088;51.032;7.082;2022-10-15T00:51:20;5.20;;;2.90;;
4148;SDS011;2088;51.032;7.082;2022-10-15T00:53:49;6.43;;;2.97;;
4148;SDS011;2088;51.032;7.082;2022-10-15T00:56:16;4.63;;;3.50;;
4148;SDS011;2088;51.032;7.082;2022-10-15T00:58:46;6.53;;;3.50;;
4148;SDS011;2088;51.032;7.082;2022-10-15T01:01:15;4.33;;;3.10;;
4148;SDS011;2088;51.032;7.082;2022-10-15T01:03:43;3.73;;;2.93;;
4148;SDS011;2088;51.032;7.082;2022-10-15T01:06:10;7.00;;;3.40;;
4148;SDS011;2088;51.032;7.082;2022-10-15T01:08:36;7.00;;;3.63;;
4148;SDS011;2088;51.032;7.082;2022-10-15T01:11:07;5.70;;;3.50;;
4148;SDS011;2088;51.032;7.082;2022-10-15T01:13:44;5.43;;;3.97;;
4148;SDS011;2088;51.032;7.082;2022-10-15T01:16:22;5.30;;;3.77;;
4148;SDS011;2088;51.032;7.082;2022-10-15T01:18:56;5.20;;;3.53;;
4148;SDS011;2088;51.032;7.082;2022-10-15T01:21:29;6.50;;;3.70;;
4148;SDS011;2088;51.032;7.082;2022-10-15T01:24:09;4.90;;;3.87;;
4148;SDS011;2088;51.032;7.082;2022-10-15T01:27:05;6.20;;;3.23;;
4148;SDS011;2088;51.032;7.082;2022-10-15T01:29:49;8.30;;;5.30;;
4148;SDS011;2088;51.032;7.082;2022-10-15T01:32:31;4.90;;;3.37;;
4148;SDS011;2088;51.032;7.082;2022-10-15T01:35:03;4.90;;;3.70;;
4148;SDS011;2088;51.032;7.082;2022-10-15T01:37:39;4.27;;;3.33;;
4148;SDS011;2088;51.032;7.082;2022-10-15T01:40:11;7.37;;;4.90;;
4148;SDS011;2088;51.032;7.082;2022-10-15T01:42:43;5.87;;;2.70;;
4148;SDS011;2088;51.032;7.082;2022-10-15T01:45:20;7.77;;;5.00;;
4148;SDS011;2088;51.032;7.082;2022-10-15T01:47:54;4.67;;;3.47;;
4148;SDS011;2088;51.032;7.082;2022-10-15T01:50:24;4.13;;;3.00;;
4148;SDS011;2088;51.032;7.082;2022-10-15T01:52:55;5.67;;;3.70;;
4148;SDS011;2088;51.032;7.082;2022-10-15T01:55:23;5.10;;;3.90;;
4148;SDS011;2088;51.032;7.082;2022-10-15T01:57:51;6.07;;;3.00;;
4148;SDS011;2088;51.032;7.082;2022-10-15T02:00:22;5.57;;;3.60;;
4148;SDS011;2088;51.032;7.082;2022-10-15T02:02:49;6.00;;;3.40;;
4148;SDS011;2088;51.032;7.082;2022-10-15T02:05:18;5.73;;;4.40;;
4148;SDS011;2088;51.032;7.082;2022-10-15T02:07:52;4.37;;;3.10;;
4148;SDS011;2088;51.032;7.082;2022-10-15T02:10:26;5.60;;;3.47;;
4148;SDS011;2088;51.032;7.082;2022-10-15T02:13:01;4.80;;;3.40;;
4148;SDS011;2088;51.032;7.082;2022-10-15T02:15:35;6.17;;;3.50;;
4148;SDS011;2088;51.032;7.082;2022-10-15T02:18:11;5.70;;;3.77;;
4148;SDS011;2088;51.032;7.082;2022-10-15T02:20:47;4.90;;;3.97;;
4148;SDS011;2088;51.032;7.082;2022-10-15T02:23:20;5.07;;;3.13;;
4148;SDS011;2088;51.032;7.082;2022-10-15T02:25:51;7.40;;;3.53;;
4148;SDS011;2088;51.032;7.082;2022-10-15T02:28:19;6.90;;;5.00;;
4148;SDS011;2088;51.032;7.082;2022-10-15T02:30:50;6.07;;;4.27;;
4148;SDS011;2088;51.032;7.082;2022-10-15T02:33:18;8.60;;;4.93;;
4148;SDS011;2088;51.032;7.082;2022-10-15T02:35:47;4.70;;;3.60;;
4148;SDS011;2088;51.032;7.082;2022-10-15T02:38:16;6.13;;;4.47;;
4148;SDS011;2088;51.032;7.082;2022-10-15T02:40:45;9.53;;;4.40;;
4148;SDS011;2088;51.032;7.082;2022-10-15T02:43:14;5.83;;;4.50;;
4148;SDS011;2088;51.032;7.082;2022-10-15T02:45:44;11.33;;;6.00;;
4148;SDS011;2088;51.032;7.082;2022-10-15T02:48:11;7.23;;;4.60;;
4148;SDS011;2088;51.032;7.082;2022-10-15T02:50:37;8.10;;;5.03;;
4148;SDS011;2088;51.032;7.082;2022-10-15T02:53:05;8.30;;;4.70;;
4148;SDS011;2088;51.032;7.082;2022-10-15T02:55:32;13.77;;;4.20;;
4148;SDS011;2088;51.032;7.082;2022-10-15T02:57:59;10.40;;;6.47;;
4148;SDS011;2088;51.032;7.082;2022-10-15T03:00:25;8.07;;;5.20;;
4148;SDS011;2088;51.032;7.082;2022-10-15T03:02:52;8.13;;;5.60;;
4148;SDS011;2088;51.032;7.082;2022-10-15T03:05:18;8.50;;;5.17;;
4148;SDS011;2088;51.032;7.082;2022-10-15T03:07:45;15.20;;;5.70;;
4148;SDS011;2088;51.032;7.082;2022-10-15T03:10:12;10.60;;;5.90;;
4148;SDS011;2088;51.032;7.082;2022-10-15T03:12:39;9.00;;;5.50;;
4148;SDS011;2088;51.032;7.082;2022-10-15T03:15:06;12.03;;;5.43;;
4148;SDS011;2088;51.032;7.082;2022-10-15T03:17:33;9.43;;;6.27;;
4148;SDS011;2088;51.032;7.082;2022-10-15T03:19:59;13.23;;;6.40;;
4148;SDS011;2088;51.032;7.082;2022-10-15T03:22:26;12.30;;;6.87;;
4148;SDS011;2088;51.032;7.082;2022-10-15T03:24:52;15.53;;;6.37;;
4148;SDS011;2088;51.032;7.082;2022-10-15T03:27:20;7.77;;;5.40;;
4148;SDS011;2088;51.032;7.082;2022-10-15T03:29:47;9.93;;;5.60;;
4148;SDS011;2088;51.032;7.082;2022-10-15T03:32:13;12.70;;;6.57;;
4148;SDS011;2088;51.032;7.082;2022-10-15T03:34:40;7.30;;;5.10;;
4148;SDS011;2088;51.032;7.082;2022-10-15T03:37:06;11.20;;;5.40;;
4148;SDS011;2088;51.032;7.082;2022-10-15T03:39:33;10.50;;;5.53;;
4148;SDS011;2088;51.032;7.082;2022-10-15T03:41:59;15.90;;;5.90;;
4148;SDS011;2088;51.032;7.082;2022-10-15T03:44:27;11.17;;;6.23;;
4148;SDS011;2088;51.032;7.082;2022-10-15T03:46:53;9.60;;;5.80;;
4148;SDS011;2088;51.032;7.082;2022-10-15T03:49:20;13.03;;;6.13;;
4148;SDS011;2088;51.032;7.082;2022-10-15T03:51:46;11.60;;;6.90;;
4148;SDS011;2088;51.032;7.082;2022-10-15T03:54:13;17.47;;;6.70;;
4148;SDS011;2088;51.032;7.082;2022-10-15T03:56:39;15.60;;;6.87;;
4148;SDS011;2088;51.032;7.082;2022-10-15T03:59:06;10.33;;;5.83;;
4148;SDS011;2088;51.032;7.082;2022-10-15T04:01:33;33.60;;;5.77;;
4148;SDS011;2088;51.032;7.082;2022-10-15T04:04:00;11.50;;;6.53;;
4148;SDS011;2088;51.032;7.082;2022-10-15T04:06:26;10.33;;;6.67;;
4148;SDS011;2088;51.032;7.082;2022-10-15T04:08:53;61.50;;;6.17;;
4148;SDS011;2088;51.032;7.082;2022-10-15T04:11:19;16.50;;;6.13;;
4148;SDS011;2088;51.032;7.082;2022-10-15T04:13:46;15.07;;;8.57;;
4148;SDS011;2088;51.032;7.082;2022-10-15T04:16:13;12.97;;;8.07;;
4148;SDS011;2088;51.032;7.082;2022-10-15T04:18:41;12.90;;;6.50;;
4148;SDS011;2088;51.032;7.082;2022-10-15T04:21:08;15.40;;;5.77;;
4148;SDS011;2088;51.032;7.082;2022-10-15T04:23:35;12.97;;;6.63;;
4148;SDS011;2088;51.032;7.082;2022-10-15T04:26:01;18.17;;;7.03;;
4148;SDS011;2088;51.032;7.082;2022-10-15T04:28:28;12.50;;;5.83;;
4148;SDS011;2088;51.032;7.082;2022-10-15T04:30:55;11.83;;;6.30;;
4148;SDS011;2088;51.032;7.082;2022-10-15T04:33:22;9.53;;;6.53;;
4148;SDS011;2088;51.032;7.082;2022-10-15T04:35:57;10.07;;;6.10;;
4148;SDS011;2088;51.032;7.082;2022-10-15T04:38:25;10.13;;;6.00;;
4148;SDS011;2088;51.032;7.082;2022-10-15T04:40:56;16.20;;;5.27;;
4148;SDS011;2088;51.032;7.082;2022-10-15T04:43:24;10.60;;;4.90;;
4148;SDS011;2088;51.032;7.082;2022-10-15T04:45:50;8.63;;;4.97;;
4148;SDS011;2088;51.032;7.082;2022-10-15T04:48:21;9.23;;;5.00;;
4148;SDS011;2088;51.032;7.082;2022-10-15T04:50:47;5.80;;;4.23;;
4148;SDS011;2088;51.032;7.082;2022-10-15T04:53:15;11.77;;;4.87;;
4148;SDS011;2088;51.032;7.082;2022-10-15T04:55:41;10.20;;;5.80;;
4148;SDS011;2088;51.032;7.082;2022-10-15T04:58:08;8.17;;;4.67;;
4148;SDS011;2088;51.032;7.082;2022-10-15T05:00:34;9.27;;;5.30;;
4148;SDS011;2088;51.032;7.082;2022-10-15T05:03:01;7.67;;;4.80;;
4148;SDS011;2088;51.032;7.082;2022-10-15T05:05:27;8.63;;;5.50;;
4148;SDS011;2088;51.032;7.082;2022-10-15T05:07:53;6.20;;;4.70;;
4148;SDS011;2088;51.032;7.082;2022-10-15T05:10:21;7.27;;;4.20;;
4148;SDS011;2088;51.032;7.082;2022-10-15T05:12:48;9.40;;;6.00;;
4148;SDS011;2088;51.032;7.082;2022-10-15T05:15:14;8.63;;;4.80;;
4148;SDS011;2088;51.032;7.082;2022-10-15T05:17:40;8.83;;;4.67;;
4148;SDS011;2088;51.032;7.082;2022-10-15T05:20:07;9.67;;;5.17;;
4148;SDS011;2088;51.032;7.082;2022-10-15T05:22:34;7.83;;;5.57;;
4148;SDS011;2088;51.032;7.082;2022-10-15T05:25:01;8.43;;;5.20;;
4148;SDS011;2088;51.032;7.082;2022-10-15T05:27:29;12.70;;;8.10;;
4148;SDS011;2088;51.032;7.082;2022-10-15T05:29:55;9.60;;;6.00;;
4148;SDS011;2088;51.032;7.082;2022-10-15T05:32:22;10.57;;;5.57;;
4148;SDS011;2088;51.032;7.082;2022-10-15T05:34:49;12.73;;;5.80;;
4148;SDS011;2088;51.032;7.082;2022-10-15T05:37:15;8.67;;;6.00;;
4148;SDS011;2088;51.032;7.082;2022-10-15T05:39:42;9.73;;;5.60;;
4148;SDS011;2088;51.032;7.082;2022-10-15T05:42:08;15.80;;;7.03;;
4148;SDS011;2088;51.032;7.082;2022-10-15T05:44:36;11.97;;;5.83;;
4148;SDS011;2088;51.032;7.082;2022-10-15T05:47:02;10.13;;;5.57;;
4148;SDS011;2088;51.032;7.082;2022-10-15T05:49:29;8.50;;;5.80;;
4148;SDS011;2088;51.032;7.082;2022-10-15T05:51:55;7.70;;;5.13;;
4148;SDS011;2088;51.032;7.082;2022-10-15T05:54:22;13.70;;;5.47;;
4148;SDS011;2088;51.032;7.082;2022-10-15T05:56:48;10.73;;;6.23;;
4148;SDS011;2088;51.032;7.082;2022-10-15T05:59:14;8.17;;;5.17;;
4148;SDS011;2088;51.032;7.082;2022-10-15T06:01:42;8.70;;;5.50;;
4148;SDS011;2088;51.032;7.082;2022-10-15T06:04:09;8.30;;;4.80;;
4148;SDS011;2088;51.032;7.082;2022-10-15T06:06:35;11.40;;;5.60;;
4148;SDS011;2088;51.032;7.082;2022-10-15T06:09:02;9.80;;;5.30;;
4148;SDS011;2088;51.032;7.082;2022-10-15T06:11:29;9.43;;;5.60;;
4148;SDS011;2088;51.032;7.082;2022-10-15T06:13:55;11.70;;;4.90;;
4148;SDS011;2088;51.032;7.082;2022-10-15T06:16:22;9.93;;;5.40;;
4148;SDS011;2088;51.032;7.082;2022-10-15T06:18:49;8.57;;;5.17;;
4148;SDS011;2088;51.032;7.082;2022-10-15T06:21:17;8.50;;;5.10;;
4148;SDS011;2088;51.032;7.082;2022-10-15T06:23:43;7.17;;;4.47;;
4148;SDS011;2088;51.032;7.082;2022-10-15T06:26:10;8.63;;;5.33;;
4148;SDS011;2088;51.032;7.082;2022-10-15T06:28:37;6.87;;;4.63;;
4148;SDS011;2088;51.032;7.082;2022-10-15T06:31:04;7.40;;;4.30;;
4148;SDS011;2088;51.032;7.082;2022-10-15T06:33:33;8.40;;;4.80;;
4148;SDS011;2088;51.032;7.082;2022-10-15T06:36:02;5.90;;;3.83;;
4148;SDS011;2088;51.032;7.082;2022-10-15T06:38:29;9.03;;;4.50;;
4148;SDS011;2088;51.032;7.082;2022-10-15T06:40:56;24.23;;;5.20;;
4148;SDS011;2088;51.032;7.082;2022-10-15T06:43:22;6.60;;;3.90;;
4148;SDS011;2088;51.032;7.082;2022-10-15T06:45:49;10.00;;;3.80;;
4148;SDS011;2088;51.032;7.082;2022-10-15T06:48:16;8.27;;;4.03;;
4148;SDS011;2088;51.032;7.082;2022-10-15T06:50:42;5.20;;;4.30;;
4148;SDS011;2088;51.032;7.082;2022-10-15T06:53:10;3.90;;;2.90;;
4148;SDS011;2088;51.032;7.082;2022-10-15T06:55:37;10.43;;;3.30;;
4148;SDS011;2088;51.032;7.082;2022-10-15T06:58:04;4.63;;;3.60;;
4148;SDS011;2088;51.032;7.082;2022-10-15T07:00:30;5.20;;;3.60;;
4148;SDS011;2088;51.032;7.082;2022-10-15T07:03:01;5.60;;;3.27;;
4148;SDS011;2088;51.032;7.082;2022-10-15T07:05:28;3.80;;;2.50;;
4148;SDS011;2088;51.032;7.082;2022-10-15T07:07:55;5.50;;;3.00;;
4148;SDS011;2088;51.032;7.082;2022-10-15T07:10:24;2.77;;;2.50;;
4148;SDS011;2088;51.032;7.082;2022-10-15T07:12:52;5.43;;;3.23;;
4148;SDS011;2088;51.032;7.082;2022-10-15T07:15:19;5.37;;;2.70;;
4148;SDS011;2088;51.032;7.082;2022-10-15T07:17:46;5.20;;;2.57;;
4148;SDS011;2088;51.032;7.082;2022-10-15T07:20:13;3.73;;;2.37;;
4148;SDS011;2088;51.032;7.082;2022-10-15T07:22:40;7.50;;;3.80;;
4148;SDS011;2088;51.032;7.082;2022-10-15T07:25:07;2.13;;;1.80;;
4148;SDS011;2088;51.032;7.082;2022-10-15T07:27:36;3.80;;;2.30;;
4148;SDS011;2088;51.032;7.082;2022-10-15T07:30:03;2.17;;;1.97;;
4148;SDS011;2088;51.032;7.082;2022-10-15T07:32:31;2.73;;;2.37;;
4148;SDS011;2088;51.032;7.082;2022-10-15T07:34:57;2.40;;;2.00;;
4148;SDS011;2088;51.032;7.082;2022-10-15T07:37:24;4.83;;;1.60;;
4148;SDS011;2088;51.032;7.082;2022-10-15T07:39:50;3.60;;;1.80;;
4148;SDS011;2088;51.032;7.082;2022-10-15T07:42:17;8.10;;;2.57;;
4148;SDS011;2088;51.032;7.082;2022-10-15T07:44:45;2.00;;;1.70;;
4148;SDS011;2088;51.032;7.082;2022-10-15T07:47:12;2.20;;;1.33;;
4148;SDS011;2088;51.032;7.082;2022-10-15T07:49:38;2.13;;;1.33;;
4148;SDS011;2088;51.032;7.082;2022-10-15T07:52:05;3.30;;;1.70;;
4148;SDS011;2088;51.032;7.082;2022-10-15T07:54:32;4.33;;;2.50;;
4148;SDS011;2088;51.032;7.082;2022-10-15T07:56:59;2.10;;;1.00;;
4148;SDS011;2088;51.032;7.082;2022-10-15T07:59:25;1.37;;;1.27;;
4148;SDS011;2088;51.032;7.082;2022-10-15T08:01:53;1.73;;;1.37;;
4148;SDS011;2088;51.032;7.082;2022-10-15T08:04:19;1.10;;;1.00;;
4148;SDS011;2088;51.032;7.082;2022-10-15T08:06:46;2.70;;;1.00;;
4148;SDS011;2088;51.032;7.082;2022-10-15T08:09:13;1.37;;;1.27;;
4148;SDS011;2088;51.032;7.082;2022-10-15T08:11:40;1.40;;;1.10;;
4148;SDS011;2088;51.032;7.082;2022-10-15T08:14:06;1.47;;;1.37;;
4148;SDS011;2088;51.032;7.082;2022-10-15T08:16:33;2.90;;;0.70;;
4148;SDS011;2088;51.032;7.082;2022-10-15T08:19:00;2.50;;;1.10;;
4148;SDS011;2088;51.032;7.082;2022-10-15T08:21:27;1.73;;;1.10;;
4148;SDS011;2088;51.032;7.082;2022-10-15T08:23:53;1.57;;;0.90;;
4148;SDS011;2088;51.032;7.082;2022-10-15T08:26:21;10.00;;;1.13;;
4148;SDS011;2088;51.032;7.082;2022-10-15T08:28:48;1.60;;;0.90;;
4148;SDS011;2088;51.032;7.082;2022-10-15T08:31:15;1.43;;;0.70;;
4148;SDS011;2088;51.032;7.082;2022-10-15T08:33:43;0.80;;;0.80;;
4148;SDS011;2088;51.032;7.082;2022-10-15T08:36:11;8.13;;;2.90;;
4148;SDS011;2088;51.032;7.082;2022-10-15T08:38:38;2.50;;;1.20;;
4148;SDS011;2088;51.032;7.082;2022-10-15T08:41:04;1.20;;;0.70;;
4148;SDS011;2088;51.032;7.082;2022-10-15T08:43:44;2.73;;;1.00;;
4148;SDS011;2088;51.032;7.082;2022-10-15T08:46:13;2.43;;;0.70;;
4148;SDS011;2088;51.032;7.082;2022-10-15T08:48:45;2.03;;;0.93;;
4148;SDS011;2088;51.032;7.082;2022-10-15T08:51:16;1.00;;;0.80;;
4148;SDS011;2088;51.032;7.082;2022-10-15T08:53:46;1.30;;;0.80;;
4148;SDS011;2088;51.032;7.082;2022-10-15T08:56:16;1.00;;;0.90;;
4148;SDS011;2088;51.032;7.082;2022-10-15T08:58:47;1.30;;;0.90;;
4148;SDS011;2088;51.032;7.082;2022-10-15T09:01:20;0.80;;;0.57;;
4148;SDS011;2088;51.032;7.082;2022-10-15T09:03:54;1.10;;;0.60;;
4148;SDS011;2088;51.032;7.082;2022-10-15T09:06:33;0.90;;;0.67;;
4148;SDS011;2088;51.032;7.082;2022-10-15T09:09:05;4.40;;;1.53;;
4148;SDS011;2088;51.032;7.082;2022-10-15T09:11:40;4.20;;;1.00;;
4148;SDS011;2088;51.032;7.082;2022-10-15T09:14:14;1.10;;;0.87;;
4148;SDS011;2088;51.032;7.082;2022-10-15T09:16:44;2.30;;;0.80;;
4148;SDS011;2088;51.032;7.082;2022-10-15T09:19:13;1.07;;;0.67;;
4148;SDS011;2088;51.032;7.082;2022-10-15T09:21:44;2.33;;;1.00;;
4148;SDS011;2088;51.032;7.082;2022-10-15T09:24:12;1.47;;;0.77;;
4148;SDS011;2088;51.032;7.082;2022-10-15T09:26:46;1.67;;;0.80;;
4148;SDS011;2088;51.032;7.082;2022-10-15T09:29:22;0.90;;;0.70;;
4148;SDS011;2088;51.032;7.082;2022-10-15T09:31:54;1.00;;;0.50;;
4148;SDS011;2088;51.032;7.082;2022-10-15T09:34:28;1.83;;;0.70;;
4148;SDS011;2088;51.032;7.082;2022-10-15T09:37:04;1.40;;;0.60;;
4148;SDS011;2088;51.032;7.082;2022-10-15T09:39:40;0.90;;;0.60;;
4148;SDS011;2088;51.032;7.082;2022-10-15T09:42:18;0.80;;;0.60;;
4148;SDS011;2088;51.032;7.082;2022-10-15T09:44:54;0.97;;;0.87;;
4148;SDS011;2088;51.032;7.082;2022-10-15T09:47:25;0.90;;;0.60;;
4148;SDS011;2088;51.032;7.082;2022-10-15T09:49:52;0.93;;;0.60;;
4148;SDS011;2088;51.032;7.082;2022-10-15T09:52:23;2.27;;;0.70;;
4148;SDS011;2088;51.032;7.082;2022-10-15T09:55:01;0.80;;;0.57;;
4148;SDS011;2088;51.032;7.082;2022-10-15T09:57:35;1.00;;;0.83;;
4148;SDS011;2088;51.032;7.082;2022-10-15T10:00:04;1.93;;;0.73;;
4148;SDS011;2088;51.032;7.082;2022-10-15T10:02:34;0.90;;;0.67;;
4148;SDS011;2088;51.032;7.082;2022-10-15T10:05:16;1.20;;;0.90;;
4148;SDS011;2088;51.032;7.082;2022-10-15T10:07:46;1.13;;;0.60;;
4148;SDS011;2088;51.032;7.082;2022-10-15T10:10:20;1.77;;;0.80;;
4148;SDS011;2088;51.032;7.082;2022-10-15T10:12:49;1.53;;;0.90;;
4148;SDS011;2088;51.032;7.082;2022-10-15T10:15:25;1.07;;;0.80;;
4148;SDS011;2088;51.032;7.082;2022-10-15T10:17:55;0.90;;;0.60;;
4148;SDS011;2088;51.032;7.082;2022-10-15T10:20:22;1.07;;;0.67;;
4148;SDS011;2088;51.032;7.082;2022-10-15T10:22:52;0.80;;;0.60;;
4148;SDS011;2088;51.032;7.082;2022-10-15T10:25:33;2.30;;;0.60;;
4148;SDS011;2088;51.032;7.082;2022-10-15T10:28:04;1.43;;;1.23;;
4148;SDS011;2088;51.032;7.082;2022-10-15T10:30:42;1.10;;;0.77;;
4148;SDS011;2088;51.032;7.082;2022-10-15T10:33:21;1.00;;;0.60;;
4148;SDS011;2088;51.032;7.082;2022-10-15T10:35:52;1.03;;;0.70;;
4148;SDS011;2088;51.032;7.082;2022-10-15T10:38:21;1.60;;;0.77;;
4148;SDS011;2088;51.032;7.082;2022-10-15T10:40:49;1.00;;;0.70;;
4148;SDS011;2088;51.032;7.082;2022-10-15T10:43:18;1.00;;;0.53;;
4148;SDS011;2088;51.032;7.082;2022-10-15T10:45:53;1.13;;;0.97;;
4148;SDS011;2088;51.032;7.082;2022-10-15T10:48:22;0.90;;;0.60;;
4148;SDS011;2088;51.032;7.082;2022-10-15T10:51:00;1.10;;;0.70;;
4148;SDS011;2088;51.032;7.082;2022-10-15T10:53:30;1.00;;;0.60;;
4148;SDS011;2088;51.032;7.082;2022-10-15T10:55:57;3.33;;;0.60;;
4148;SDS011;2088;51.032;7.082;2022-10-15T10:58:26;1.40;;;0.87;;
4148;SDS011;2088;51.032;7.082;2022-10-15T11:00:58;0.90;;;0.60;;
4148;SDS011;2088;51.032;7.082;2022-10-15T11:03:29;1.10;;;0.60;;
4148;SDS011;2088;51.032;7.082;2022-10-15T11:06:00;1.00;;;0.60;;
4148;SDS011;2088;51.032;7.082;2022-10-15T11:08:42;1.47;;;0.60;;
4148;SDS011;2088;51.032;7.082;2022-10-15T11:11:17;2.10;;;0.70;;
4148;SDS011;2088;51.032;7.082;2022-10-15T11:13:53;0.80;;;0.50;;
4148;SDS011;2088;51.032;7.082;2022-10-15T11:16:30;1.83;;;0.80;;
4148;SDS011;2088;51.032;7.082;2022-10-15T11:19:09;1.00;;;0.80;;
4148;SDS011;2088;51.032;7.082;2022-10-15T11:21:50;1.50;;;0.50;;
4148;SDS011;2088;51.032;7.082;2022-10-15T11:24:32;1.00;;;0.73;;
4148;SDS011;2088;51.032;7.082;2022-10-15T11:27:12;0.90;;;0.60;;
4148;SDS011;2088;51.032;7.082;2022-10-15T11:29:50;0.80;;;0.50;;
4148;SDS011;2088;51.032;7.082;2022-10-15T11:32:25;1.10;;;0.60;;
4148;SDS011;2088;51.032;7.082;2022-10-15T11:35:13;0.97;;;0.63;;
4148;SDS011;2088;51.032;7.082;2022-10-15T11:37:50;1.00;;;0.50;;
4148;SDS011;2088;51.032;7.082;2022-10-15T11:40:26;0.90;;;0.57;;
4148;SDS011;2088;51.032;7.082;2022-10-15T11:42:59;1.20;;;0.70;;
4148;SDS011;2088;51.032;7.082;2022-10-15T11:45:34;1.40;;;0.60;;
4148;SDS011;2088;51.032;7.082;2022-10-15T11:48:08;0.80;;;0.60;;
4148;SDS011;2088;51.032;7.082;2022-10-15T11:50:39;1.03;;;0.67;;
4148;SDS011;2088;51.032;7.082;2022-10-15T11:53:15;0.80;;;0.50;;
4148;SDS011;2088;51.032;7.082;2022-10-15T11:55:58;4.67;;;0.90;;
4148;SDS011;2088;51.032;7.082;2022-10-15T11:58:30;0.80;;;0.50;;
4148;SDS011;2088;51.032;7.082;2022-10-15T12:01:01;0.90;;;0.60;;
4148;SDS011;2088;51.032;7.082;2022-10-15T12:03:34;4.03;;;0.63;;
4148;SDS011;2088;51.032;7.082;2022-10-15T12:06:06;1.83;;;0.70;;
4148;SDS011;2088;51.032;7.082;2022-10-15T12:08:36;1.30;;;0.93;;
4148;SDS011;2088;51.032;7.082;2022-10-15T12:11:09;1.00;;;0.60;;
4148;SDS011;2088;51.032;7.082;2022-10-15T12:13:47;0.90;;;0.60;;
4148;SDS011;2088;51.032;7.082;2022-10-15T12:16:23;0.90;;;0.60;;
4148;SDS011;2088;51.032;7.082;2022-10-15T12:18:56;0.90;;;0.70;;
4148;SDS011;2088;51.032;7.082;2022-10-15T12:21:39;2.00;;;0.60;;
4148;SDS011;2088;51.032;7.082;2022-10-15T12:27:18;1.20;;;0.60;;
4148;SDS011;2088;51.032;7.082;2022-10-15T12:29:47;1.00;;;0.60;;
4148;SDS011;2088;51.032;7.082;2022-10-15T12:32:22;2.93;;;1.37;;
4148;SDS011;2088;51.032;7.082;2022-10-15T12:34:53;0.80;;;0.50;;
4148;SDS011;2088;51.032;7.082;2022-10-15T12:37:21;0.90;;;0.53;;
4148;SDS011;2088;51.032;7.082;2022-10-15T12:39:53;0.90;;;0.60;;
4148;SDS011;2088;51.032;7.082;2022-10-15T12:42:24;1.30;;;0.60;;
4148;SDS011;2088;51.032;7.082;2022-10-15T12:44:53;1.10;;;0.73;;
4148;SDS011;2088;51.032;7.082;2022-10-15T12:50:17;0.90;;;0.50;;
4148;SDS011;2088;51.032;7.082;2022-10-15T12:52:53;5.07;;;0.50;;
4148;SDS011;2088;51.032;7.082;2022-10-15T12:55:23;1.00;;;0.60;;
4148;SDS011;2088;51.032;7.082;2022-10-15T12:57:54;0.90;;;0.50;;
4148;SDS011;2088;51.032;7.082;2022-10-15T13:00:27;1.20;;;0.87;;
4148;SDS011;2088;51.032;7.082;2022-10-15T13:02:57;1.30;;;0.60;;
4148;SDS011;2088;51.032;7.082;2022-10-15T13:05:35;0.80;;;0.50;;
4148;SDS011;2088;51.032;7.082;2022-10-15T13:08:02;0.90;;;0.60;;
4148;SDS011;2088;51.032;7.082;2022-10-15T13:10:36;1.10;;;0.60;;
4148;SDS011;2088;51.032;7.082;2022-10-15T13:13:10;1.40;;;0.80;;
4148;SDS011;2088;51.032;7.082;2022-10-15T13:15:41;4.60;;;0.50;;
4148;SDS011;2088;51.032;7.082;2022-10-15T13:18:15;1.00;;;0.60;;
4148;SDS011;2088;51.032;7.082;2022-10-15T13:20:43;1.30;;;0.60;;
4148;SDS011;2088;51.032;7.082;2022-10-15T13:23:15;1.17;;;0.50;;
4148;SDS011;2088;51.032;7.082;2022-10-15T13:25:45;1.00;;;0.60;;
4148;SDS011;2088;51.032;7.082;2022-10-15T13:28:29;0.80;;;0.50;;
4148;SDS011;2088;51.032;7.082;2022-10-15T13:30:57;1.57;;;0.60;;
4148;SDS011;2088;51.032;7.082;2022-10-15T13:33:25;12.33;;;6.00;;
4148;SDS011;2088;51.032;7.082;2022-10-15T13:35:51;1.77;;;0.60;;
4148;SDS011;2088;51.032;7.082;2022-10-15T13:38:19;1.00;;;0.57;;
4148;SDS011;2088;51.032;7.082;2022-10-15T13:40:47;0.90;;;0.60;;
4148;SDS011;2088;51.032;7.082;2022-10-15T13:43:15;0.90;;;0.60;;
4148;SDS011;2088;51.032;7.082;2022-10-15T13:45:48;1.00;;;0.70;;
4148;SDS011;2088;51.032;7.082;2022-10-15T13:48:18;5.97;;;0.67;;
4148;SDS011;2088;51.032;7.082;2022-10-15T13:50:47;0.90;;;0.60;;
4148;SDS011;2088;51.032;7.082;2022-10-15T13:53:17;1.37;;;0.80;;
4148;SDS011;2088;51.032;7.082;2022-10-15T13:55:52;1.57;;;0.97;;
4148;SDS011;2088;51.032;7.082;2022-10-15T13:58:20;0.90;;;0.60;;
4148;SDS011;2088;51.032;7.082;2022-10-15T14:00:52;1.93;;;0.70;;
4148;SDS011;2088;51.032;7.082;2022-10-15T14:03:22;3.13;;;1.07;;
4148;SDS011;2088;51.032;7.082;2022-10-15T14:05:51;9.90;;;4.40;;
4148;SDS011;2088;51.032;7.082;2022-10-15T14:08:20;27.47;;;11.57;;
4148;SDS011;2088;51.032;7.082;2022-10-15T14:10:51;1.00;;;0.60;;
4148;SDS011;2088;51.032;7.082;2022-10-15T14:13:22;2.27;;;0.93;;
4148;SDS011;2088;51.032;7.082;2022-10-15T14:15:55;1.20;;;0.70;;
4148;SDS011;2088;51.032;7.082;2022-10-15T14:18:27;1.77;;;0.60;;
4148;SDS011;2088;51.032;7.082;2022-10-15T14:20:56;1.53;;;0.80;;
4148;SDS011;2088;51.032;7.082;2022-10-15T14:23:23;1.33;;;0.67;;
4148;SDS011;2088;51.032;7.082;2022-10-15T14:25:52;4.30;;;0.70;;
4148;SDS011;2088;51.032;7.082;2022-10-15T14:28:20;1.10;;;0.57;;
4148;SDS011;2088;51.032;7.082;2022-10-15T14:30:48;1.00;;;0.60;;
4148;SDS011;2088;51.032;7.082;2022-10-15T14:33:33;0.90;;;0.70;;
4148;SDS011;2088;51.032;7.082;2022-10-15T14:36:07;1.83;;;0.70;;
4148;SDS011;2088;51.032;7.082;2022-10-15T14:38:37;1.27;;;0.70;;
4148;SDS011;2088;51.032;7.082;2022-10-15T14:41:05;1.00;;;0.53;;
4148;SDS011;2088;51.032;7.082;2022-10-15T14:43:58;0.80;;;0.50;;
4148;SDS011;2088;51.032;7.082;2022-10-15T14:46:26;0.90;;;0.50;;
4148;SDS011;2088;51.032;7.082;2022-10-15T14:49:02;1.27;;;0.50;;
4148;SDS011;2088;51.032;7.082;2022-10-15T14:51:39;0.90;;;0.50;;
4148;SDS011;2088;51.032;7.082;2022-10-15T14:54:09;0.97;;;0.60;;
4148;SDS011;2088;51.032;7.082;2022-10-15T14:56:43;0.90;;;0.50;;
4148;SDS011;2088;51.032;7.082;2022-10-15T14:59:12;0.90;;;0.50;;
4148;SDS011;2088;51.032;7.082;2022-10-15T15:01:49;1.87;;;0.60;;
4148;SDS011;2088;51.032;7.082;2022-10-15T15:07:09;2.40;;;0.73;;
4148;SDS011;2088;51.032;7.082;2022-10-15T15:09:38;0.90;;;0.60;;
4148;SDS011;2088;51.032;7.082;2022-10-15T15:12:07;0.93;;;0.50;;
4148;SDS011;2088;51.032;7.082;2022-10-15T15:14:39;1.10;;;0.60;;
4148;SDS011;2088;51.032;7.082;2022-10-15T15:17:07;1.03;;;0.70;;
4148;SDS011;2088;51.032;7.082;2022-10-15T15:19:40;1.27;;;0.77;;
4148;SDS011;2088;51.032;7.082;2022-10-15T15:22:07;1.20;;;0.80;;
4148;SDS011;2088;51.032;7.082;2022-10-15T15:24:34;2.23;;;0.73;;
4148;SDS011;2088;51.032;7.082;2022-10-15T15:27:00;1.00;;;0.80;;
4148;SDS011;2088;51.032;7.082;2022-10-15T15:29:27;2.73;;;0.67;;
4148;SDS011;2088;51.032;7.082;2022-10-15T15:31:53;1.60;;;0.83;;
4148;SDS011;2088;51.032;7.082;2022-10-15T15:34:20;2.50;;;0.70;;
4148;SDS011;2088;51.032;7.082;2022-10-15T15:36:48;2.00;;;0.87;;
4148;SDS011;2088;51.032;7.082;2022-10-15T15:39:15;2.40;;;0.60;;